createdAt,value
2023-05-14T00:04:28.504Z,8.487823
2023-05-14T00:09:40.675Z,8.809387
2023-05-14T00:14:52.854Z,8.622879
2023-05-14T00:20:05.020Z,8.517395
2023-05-14T00:25:17.265Z,8.428284
2023-05-14T00:30:29.466Z,8.350952
2023-05-14T00:35:42.042Z,8.441452
2023-05-14T00:40:54.236Z,8.470474
2023-05-14T00:46:06.874Z,8.396652
2023-05-14T00:51:18.992Z,8.362961
2023-05-14T00:56:31.254Z,8.374924
2023-05-14T01:01:43.480Z,8.326782
2023-05-14T01:06:56.046Z,8.329895
2023-05-14T01:12:08.518Z,8.427017
2023-05-14T01:17:20.634Z,8.497162
2023-05-14T01:22:32.953Z,8.38063
2023-05-14T01:27:45.065Z,8.383621
2023-05-14T01:32:57.284Z,8.330261
2023-05-14T01:38:09.907Z,8.38652
2023-05-14T01:43:22.017Z,8.380676
2023-05-14T01:48:34.365Z,8.277222
2023-05-14T01:53:46.479Z,8.272217
2023-05-14T01:58:58.783Z,8.219833
2023-05-14T02:04:10.916Z,8.227127
2023-05-14T02:09:23.050Z,8.090866
2023-05-14T02:14:35.161Z,7.951355
2023-05-14T02:19:47.266Z,7.906815
2023-05-14T02:24:59.437Z,7.621857
2023-05-14T02:30:11.551Z,7.658981
2023-05-14T02:35:24.253Z,7.250916
2023-05-14T02:40:36.365Z,6.998428
2023-05-14T02:45:48.636Z,7.151199
2023-05-14T02:51:00.848Z,7.04686
2023-05-14T02:56:12.955Z,7.287811
2023-05-14T03:01:25.163Z,7.557358
2023-05-14T03:06:37.911Z,7.642517
2023-05-14T03:11:50.016Z,8.033005
2023-05-14T03:17:02.177Z,8.157471
2023-05-14T03:22:14.500Z,8.187256
2023-05-14T03:27:26.608Z,8.200623
2023-05-14T03:32:38.799Z,8.230362
2023-05-14T03:37:50.995Z,8.245529
2023-05-14T03:43:03.109Z,8.23465
2023-05-14T03:48:15.271Z,8.235977
2023-05-14T03:53:27.550Z,8.235336
2023-05-14T03:58:39.696Z,8.198944
2023-05-14T04:03:51.967Z,8.218506
2023-05-14T04:09:04.343Z,8.189484
2023-05-14T04:14:16.518Z,8.134476
2023-05-14T04:19:28.645Z,8.078339
2023-05-14T04:24:40.702Z,8.12471
2023-05-14T04:29:52.818Z,8.08316
2023-05-14T04:35:05.181Z,8.031418
2023-05-14T04:40:17.533Z,8.102829
2023-05-14T04:45:30.533Z,8.153931
2023-05-14T04:50:43.611Z,8.086426
2023-05-14T04:55:55.657Z,8.230835
2023-05-14T05:01:07.842Z,8.325226
2023-05-14T05:06:19.978Z,8.29335
2023-05-14T05:11:32.080Z,8.35495
2023-05-14T05:16:44.215Z,8.397461
2023-05-14T05:21:56.375Z,8.479095
2023-05-14T05:27:08.789Z,8.422241
2023-05-14T05:32:21.022Z,8.454422
2023-05-14T05:37:33.191Z,8.619003
2023-05-14T05:42:45.556Z,8.632034
2023-05-14T05:47:57.740Z,8.543121
2023-05-14T05:53:14.260Z,8.639374
2023-05-14T05:58:26.374Z,8.56514
2023-05-14T06:03:38.599Z,8.642151
2023-05-14T06:08:50.771Z,8.620361
2023-05-14T06:14:02.927Z,8.640335
2023-05-14T06:19:15.148Z,8.639847
2023-05-14T06:24:27.313Z,8.724899
2023-05-14T06:29:39.504Z,8.68927
2023-05-14T06:34:52.008Z,8.734863
2023-05-14T06:40:04.119Z,8.855484
2023-05-14T06:45:16.224Z,8.990204
2023-05-14T06:50:28.351Z,9.143158
2023-05-14T06:55:40.470Z,9.199799
2023-05-14T07:00:52.583Z,9.154449
2023-05-14T07:06:04.796Z,9.265579
2023-05-14T07:11:16.902Z,9.486755
2023-05-14T07:16:29.084Z,9.597702
2023-05-14T07:21:41.245Z,9.401245
2023-05-14T07:26:53.339Z,9.432922
2023-05-14T07:32:05.465Z,9.323929
2023-05-14T07:37:17.566Z,9.269623
2023-05-14T07:42:36.040Z,9.589142
2023-05-14T07:47:49.527Z,10.01593
2023-05-14T07:53:01.762Z,9.97876
2023-05-14T07:58:13.888Z,9.913483
2023-05-14T08:03:26.052Z,9.680527
2023-05-14T08:08:38.278Z,9.138992
2023-05-14T08:13:50.404Z,9.221176
2023-05-14T08:19:02.551Z,9.299088
2023-05-14T08:24:14.924Z,9.511093
2023-05-14T08:29:27.115Z,10.32027
2023-05-14T08:34:39.218Z,10.19884
2023-05-14T08:39:51.335Z,10.40491
2023-05-14T08:45:03.487Z,10.67427
2023-05-14T08:50:16.742Z,11.05147
2023-05-14T08:55:28.840Z,11.52171
2023-05-14T09:00:41.048Z,11.58211
2023-05-14T09:05:53.157Z,10.79298
2023-05-14T09:11:07.553Z,10.75131
2023-05-14T09:16:19.770Z,11.40434
2023-05-14T09:21:33.605Z,11.54968
2023-05-14T09:26:45.869Z,9.992752
2023-05-14T09:31:58.146Z,9.277817
2023-05-14T09:37:10.397Z,9.46521
2023-05-14T09:42:22.572Z,9.474548
2023-05-14T09:47:34.788Z,9.432953
2023-05-14T09:52:46.974Z,9.337891
2023-05-14T09:57:59.213Z,9.479126
2023-05-14T10:03:11.468Z,9.28978
2023-05-14T10:08:25.230Z,9.146072
2023-05-14T10:13:37.348Z,8.989075
2023-05-14T10:18:50.531Z,9.111221
2023-05-14T10:24:02.709Z,9.423523
2023-05-14T10:29:15.012Z,8.855347
2023-05-14T10:34:27.141Z,9.217468
2023-05-14T10:39:39.438Z,8.930115
2023-05-14T10:44:51.619Z,8.982559
2023-05-14T10:50:05.374Z,8.709213
2023-05-14T10:55:18.490Z,9.082962
2023-05-14T11:00:30.601Z,9.104782
2023-05-14T11:05:43.221Z,8.602951
2023-05-14T11:10:55.498Z,8.635971
2023-05-14T11:21:33.097Z,8.271973
2023-05-14T11:26:45.485Z,8.175461
2023-05-14T11:31:57.729Z,8.504517
2023-05-14T11:37:10.059Z,8.421875
2023-05-14T11:42:22.264Z,8.805634
2023-05-14T11:47:35.039Z,8.106888
2023-05-14T11:52:47.168Z,8.064423
2023-05-14T11:57:59.295Z,8.007935
2023-05-14T12:03:11.564Z,8.498779
2023-05-14T12:08:23.759Z,9.147491
2023-05-14T12:13:35.878Z,8.733887
2023-05-14T12:18:48.098Z,8.834549
2023-05-14T12:24:00.269Z,8.651764
2023-05-14T12:29:12.393Z,8.526459
2023-05-14T12:34:24.611Z,8.447601
2023-05-14T12:39:36.732Z,8.498154
2023-05-14T12:44:48.854Z,9.622131
2023-05-14T12:50:00.970Z,9.596588
2023-05-14T12:55:13.078Z,9.669159
2023-05-14T13:00:26.177Z,9.931931
2023-05-14T13:05:38.651Z,9.471466
2023-05-14T13:10:50.871Z,10.20897
2023-05-14T13:16:03.584Z,10.87241
2023-05-14T13:21:15.712Z,10.6324
2023-05-14T13:26:27.844Z,10.53105
2023-05-14T13:31:40.037Z,10.30612
2023-05-14T13:36:52.233Z,9.945801
2023-05-14T13:42:04.365Z,10.23364
2023-05-14T13:47:16.532Z,10.35611
2023-05-14T13:52:33.781Z,8.817154
2023-05-14T13:57:45.937Z,10.33211
2023-05-14T14:02:58.611Z,9.301819
2023-05-14T14:08:22.530Z,8.81691
2023-05-14T14:13:35.855Z,9.106873
2023-05-14T14:18:48.007Z,8.994705
2023-05-14T14:24:00.150Z,8.5672
2023-05-14T14:29:12.264Z,9.123444
2023-05-14T14:34:24.511Z,8.907547
2023-05-14T14:39:36.715Z,8.571045
2023-05-14T14:44:48.817Z,8.792084
2023-05-14T14:50:00.919Z,8.735184
2023-05-14T14:55:13.111Z,8.105774
2023-05-14T15:00:25.253Z,8.446121
2023-05-14T15:05:37.373Z,8.16713
2023-05-14T15:10:49.481Z,8.039032
2023-05-14T15:16:01.591Z,8.528046
2023-05-14T15:21:13.703Z,8.879944
2023-05-14T15:26:25.827Z,8.565994
2023-05-14T15:31:38.050Z,8.532318
2023-05-14T15:36:50.251Z,8.342606
2023-05-14T15:42:02.428Z,7.601181
2023-05-14T15:47:14.612Z,8.121002
2023-05-14T15:52:26.722Z,7.796555
2023-05-14T15:57:38.820Z,7.634842
2023-05-14T16:02:50.977Z,8.419678
2023-05-14T16:08:03.134Z,7.777725
2023-05-14T16:13:15.246Z,7.996414
2023-05-14T16:18:27.406Z,8.151871
2023-05-14T16:23:39.520Z,8.519714
2023-05-14T16:28:51.705Z,8.35817
2023-05-14T16:34:03.824Z,8.298264
2023-05-14T16:39:15.938Z,7.817139
2023-05-14T16:44:28.082Z,7.837555
2023-05-14T16:49:40.182Z,8.177429
2023-05-14T16:54:52.282Z,7.881912
2023-05-14T17:00:04.730Z,7.842941
2023-05-14T17:05:16.850Z,7.909286
2023-05-14T17:10:28.963Z,7.776794
2023-05-14T17:15:41.105Z,7.787201
2023-05-14T17:20:53.417Z,7.873535
2023-05-14T17:26:05.641Z,7.878265
2023-05-14T17:31:17.809Z,8.055115
2023-05-14T17:36:30.066Z,8.524551
2023-05-14T17:41:42.190Z,8.330841
2023-05-14T17:46:54.359Z,9.77623
2023-05-14T17:52:06.551Z,9.826126
2023-05-14T17:57:18.658Z,10.10194
2023-05-14T18:02:30.823Z,9.887939
2023-05-14T18:07:42.973Z,9.74884
2023-05-14T18:12:55.081Z,9.400558
2023-05-14T18:18:07.353Z,9.292145
2023-05-14T18:23:19.763Z,9.124283
2023-05-14T18:28:31.878Z,8.812225
2023-05-14T18:33:43.974Z,8.584991
2023-05-14T18:38:57.796Z,8.475571
2023-05-14T18:44:10.048Z,8.011765
2023-05-14T18:49:22.876Z,8.012741
2023-05-14T18:54:34.990Z,7.946976
2023-05-14T18:59:48.902Z,7.871445
2023-05-14T19:05:01.048Z,7.377563
2023-05-14T19:10:13.628Z,7.137466
2023-05-14T19:15:26.037Z,6.728516
2023-05-14T19:20:38.373Z,6.974045
2023-05-14T19:25:50.491Z,6.837479
2023-05-14T19:31:02.614Z,6.864136
2023-05-14T19:36:14.740Z,7.827026
2023-05-14T19:41:26.832Z,6.75119
2023-05-14T19:46:39.051Z,6.550018
2023-05-14T19:51:51.162Z,6.302734
2023-05-14T19:57:03.275Z,6.263519
2023-05-14T20:02:15.455Z,6.298981
2023-05-14T20:07:27.678Z,6.631363
2023-05-14T20:12:39.776Z,6.803146
2023-05-14T20:17:51.912Z,6.790512
2023-05-14T20:23:04.573Z,7.166412
2023-05-14T20:28:16.687Z,7.528351
2023-05-14T20:33:28.990Z,6.93306
2023-05-14T20:38:41.126Z,7.072571
2023-05-14T20:43:53.246Z,7.274216
2023-05-14T20:49:05.350Z,7.271545
2023-05-14T20:54:17.520Z,7.40033
2023-05-14T20:59:29.631Z,7.77179
2023-05-14T21:04:41.851Z,7.595718
2023-05-14T21:09:54.130Z,7.835724
2023-05-14T21:15:08.363Z,7.633942
2023-05-14T21:20:20.536Z,7.248123
2023-05-14T21:25:32.724Z,6.999878
2023-05-14T21:30:44.905Z,6.968307
2023-05-14T21:35:57.149Z,6.39389
2023-05-14T21:41:09.449Z,6.388779
2023-05-14T21:46:21.556Z,6.45369
2023-05-14T21:51:33.668Z,6.369537
2023-05-14T21:56:45.959Z,6.618423
2023-05-14T22:02:06.923Z,6.431213
2023-05-14T22:07:19.645Z,6.366241
2023-05-14T22:12:31.746Z,6.234055
2023-05-14T22:17:43.969Z,6.426178
2023-05-14T22:22:56.106Z,6.323837
2023-05-14T22:28:08.350Z,6.385422
2023-05-14T22:33:20.690Z,6.399673
2023-05-14T22:38:32.887Z,6.189468
2023-05-14T22:43:45.073Z,5.869888
2023-05-14T22:48:57.169Z,5.74585
2023-05-14T22:54:09.337Z,5.792923
2023-05-14T22:59:23.548Z,5.706818
2023-05-14T23:04:36.161Z,5.66185
2023-05-14T23:09:48.452Z,5.638016
2023-05-14T23:15:00.549Z,5.770294
2023-05-14T23:20:12.788Z,5.806183
2023-05-14T23:25:25.442Z,5.999634
2023-05-14T23:30:37.913Z,5.917587
2023-05-14T23:35:50.661Z,5.722977
2023-05-14T23:41:02.885Z,6.212845
2023-05-14T23:46:15.089Z,6.287994
2023-05-14T23:51:27.217Z,6.143219
2023-05-14T23:56:39.456Z,5.789108
